x

West Tampa - 112 Nm Wnw Of Tampa, Fl (42036) Wave Buoy

10:50pm - Thu 21st Aug 2014 All times are EDT. -4 hours from GMT.

  • Sig Wave height 1.0ft
  • Swell Direction
  • Peak Period 8s
  • Average Period 4s
  • Wind
    4mph, 7mph gusts
  • Sea Temp 87°f
  • Air Temp 85°f
  • Sea Pressure 1019.7mb
  • West Tampa  - 112 Nm Wnw Of Tampa, Fl
  • West Tampa  - 112 Nm Wnw Of Tampa, Fl

More Historic Weather Station data

Upgrade to MSW Pro to gain access to the past 30 days of data for over 8000 Wavebouys and Weather Stations around the globe.

Join Pro

Comparision Forecast

View Surf forecast
   
Thu 08/21 10:50pm 1ft 8s 4s 4 7 mph 1019.7mb 87f 85f
9:50pm 1ft 8s 4s 4 7 mph 1019.5mb 87f 85f
8:50pm 1ft 3s 4s 4 7 mph 1019.4mb 87f 85f
7:50pm 1ft 9s 4s 7 9 mph 1018.6mb 87f 85f
6:50pm 1ft 8s 4s 7 9 mph 1018.2mb 87f 86f
5:50pm 1ft 8s 4s 7 9 mph 1018.2mb 87f 85f
4:50pm 1.3ft 9s 4s 7 9 mph 1018.4mb 87f 85f
3:50pm 1ft 9s 4s 7 9 mph 1019.2mb 87f 85f
2:50pm 1ft 9s 4s 7 9 mph 1019.7mb 87f 85f
1:50pm 1.3ft 8s 4s 7
mph
1020.2mb 87f 85f
12:50pm 1ft 9s 3s 9 11 mph 1020.8mb 87f 85f
11:50am 1ft 9s 4s 11 13 mph 1020.9mb 86f 85f
10:50am 1ft 8s 4s 9 11 mph 1020.9mb 86f 85f
9:50am 1.3ft 9s 4s 9 11 mph 1020.7mb 86f 85f
8:50am 1.3ft 9s 4s 9
mph
1020.4mb 86f 85f
7:50am 1.3ft 8s 4s 4 7 mph 1019.7mb 86f 85f
6:50am 1.3ft 9s 4s 7
mph
1019.1mb 86f 85f
5:50am 1.3ft 8s 4s 7 9 mph 1018.5mb 86f 85f
4:50am 1.3ft 8s 4s 7 9 mph 1018.4mb 86f 85f
3:50am 1ft 8s 4s 9 11 mph 1018.3mb 86f 85f
2:50am 1ft 9s 5s 7 9 mph 1018.8mb 86f 85f
1:50am 1ft 4s 4s 7 9 mph 1019mb 86f 85f
12:50am 1ft 8s 4s 4 7 mph 1019.5mb 86f 85f
Wed 08/20 11:50pm 1ft 8s 4s 4 7 mph 1019.6mb 86f 85f
10:50pm 1ft 4s 4s 7 9 mph 1019.5mb 86f 86f
9:50pm 1.3ft 4s 4s 7
mph
1018.8mb 86f 86f
8:50pm 1ft 4s 4s 7
mph
1018.5mb 87f 86f
7:50pm 1.3ft 5s 4s 7 9 mph 1017.8mb 87f 86f
6:50pm 1.3ft 4s 4s 7
mph
1017.9mb 87f 87f
5:50pm 1.3ft 4s 4s 4 7 mph 1018.1mb 87f 86f
4:50pm 1.3ft 4s 4s 7 9 mph 1018mb 87f 86f
3:50pm 1.3ft 4s 4s 4 7 mph 1018.4mb 87f 86f
2:50pm 1.6ft 4s 4s 4 7 mph 1019mb 87f 85f
1:50pm 1.3ft 4s 4s 7 9 mph 1019.5mb 87f 85f
12:50pm 1.3ft 5s 4s 7 9 mph 1019.7mb 86f 85f
11:50am 1.3ft 4s 4s 2 4 mph 1019.8mb 86f 85f
10:50am 1.6ft 5s 4s 7 9 mph 1019.5mb 86f 85f
9:50am 1.6ft 4s 4s 9 11 mph 1018.7mb 86f 85f
8:50am 1.6ft 5s 4s 11 13 mph 1018.3mb 86f 84f
7:50am 1.6ft 5s 4s 9 11 mph 1017.6mb 86f 85f
6:50am 1.6ft 6s 4s 9 11 mph 1016.5mb 86f 85f
5:50am 1.6ft 5s 4s 7 9 mph 1016mb 86f 85f
4:50am 1.6ft 6s 4s 9 11 mph 1015.4mb 86f 85f
3:50am 1.6ft 6s 4s 9 11 mph 1015.4mb 86f 85f
2:50am 1.6ft 4s 4s 9 11 mph 1015.7mb 86f 85f
1:50am 1.6ft 4s 4s 9 11 mph 1016.4mb 86f 85f
12:50am 1.3ft 5s 4s 11 13 mph 1016.8mb 87f 85f
Tue 08/19 11:50pm 1.3ft 4s 4s 9
mph
1016.5mb 87f 85f
10:50pm 1.6ft 4s 4s 4 7 mph 1016.4mb 87f 85f
9:50pm 1.6ft 4s 4s 4 7 mph 1016.3mb 87f 85f
8:50pm 1.6ft 5s 4s 7 9 mph 1015.8mb 87f 85f
7:50pm 1.6ft 5s 4s 7 9 mph 1015.3mb 87f 86f
6:50pm 1.6ft 5s 4s 7 9 mph 1015.6mb 87f 86f
5:50pm 2ft 4s 4s 7 9 mph 1015.4mb 87f 86f
4:50pm 2ft 4s 4s 9
mph
1015.4mb 87f 86f
3:50pm 1.6ft 4s 4s 7 9 mph 1015.8mb 87f 86f
2:50pm 1.6ft 4s 4s 9 11 mph 1016.5mb 87f 86f
1:50pm 1.6ft 8s 4s 7 11 mph 1016.9mb 87f 85f
12:50pm 1.6ft 4s 4s 9
mph
1017.3mb 86f 85f
11:50am 1.6ft 8s 4s 9 11 mph 1017.8mb 86f 85f
10:50am 1.6ft 8s 4s 7 9 mph 1017.6mb 86f 85f
9:50am 1.6ft 8s 4s 4
mph
1017.3mb 86f 85f
8:50am 1.6ft 9s 4s 7
mph
1016.8mb 86f 85f
7:50am 1.3ft 9s 4s 9
mph
1016.2mb 86f 85f
6:50am 1.6ft 8s 4s 9 11 mph 1015.8mb 86f 85f
5:50am 1.6ft 9s 4s 9 11 mph 1015.3mb 86f 85f
4:50am 1.6ft 8s 4s 9 13 mph 1015.1mb 86f 85f
3:50am 1.6ft 8s 4s 9 11 mph 1015.2mb 86f 85f
2:50am 1.3ft 9s 4s 9 11 mph 1015mb 86f 85f
1:50am 1.3ft 9s 4s 9 11 mph 1015.3mb 86f 85f
12:50am 1.3ft 8s 5s 9 11 mph 1015.7mb 86f 85f
Mon 08/18 11:50pm 1.3ft 9s 4s 9 11 mph 1015.7mb 87f 85f
10:50pm 1.3ft 9s 4s 9 11 mph 1016.1mb 87f 85f
9:50pm 1.3ft 8s 4s 7 9 mph 1016.3mb 87f 85f
8:50pm 1.3ft 5s 4s 9
mph
1016.1mb 87f 85f
7:50pm 1.3ft 8s 4s 7 9 mph 1015.8mb 87f 86f
6:50pm 1.3ft 4s 4s 7 9 mph 1015.9mb 87f 86f
5:50pm 1.3ft 8s 4s 9
mph
1015.8mb 87f 86f
4:50pm 1.3ft 8s 4s 7 9 mph 1016.1mb 87f 86f
3:50pm 1ft 8s 4s 4 7 mph 1016.4mb 87f 85f
2:50pm 1.3ft 4s 4s 7 9 mph 1016.9mb 87f 83f
1:50pm 1.3ft 8s 4s 4 7 mph 1017.7mb 87f 85f
12:50pm 1.3ft 4s 4s 7 9 mph 1018mb 87f 85f
11:50am 1.3ft 4s 4s 7 9 mph 1018mb 86f 85f
10:50am 1.3ft 4s 4s 7 9 mph 1018mb 86f 85f
9:50am 1.3ft 4s 4s 9 11 mph 1017.9mb 86f 85f
8:50am 1.3ft 4s 4s 9 11 mph 1017.7mb 86f 85f
7:50am 1.3ft 4s 4s 7 9 mph 1017.4mb 86f 85f
6:50am 1.3ft 8s 4s 7 9 mph 1016.8mb 86f 85f
5:50am 1.3ft 5s 4s 9
mph
1016.4mb 86f 85f
4:50am 1.3ft 4s 4s 9
mph
1016.4mb 86f 85f